Time;durP1;ratioP1;P1;durP2;ratioP2;P2;SDS_P1;SDS_P2;PMS_P1;PMS_P2;Temp;Humidity;BMP_temperature;BMP_pressure;BME280_temperature;BME280_humidity;BME280_pressure;Samples;Min_cycle;Max_cycle;Signal;HPM_P1;HPM_P2
2022/06/27 00:00:23;;;;;;;;;4.00;2.75;;;;;;;;5058512;28;8876;-91
2022/06/27 00:02:50;;;;;;;;;3.00;3.00;;;;;;;;5064247;28;9005;-91
2022/06/27 00:05:18;;;;;;;;;5.50;4.00;;;;;;;;5067070;28;8974;-90
2022/06/27 00:07:46;;;;;;;;;3.00;3.00;;;;;;;;5063107;28;8872;-91
2022/06/27 00:10:13;;;;;;;;;4.50;3.00;;;;;;;;5067895;28;8860;-90
2022/06/27 00:12:41;;;;;;;;;3.00;3.00;;;;;;;;5066867;28;8931;-89
2022/06/27 00:15:12;;;;;;;;;1.50;1.50;;;;;;;;5070232;28;8971;-88
2022/06/27 00:17:40;;;;;;;;;4.50;3.00;;;;;;;;5065300;28;8874;-90
2022/06/27 00:20:09;;;;;;;;;4.50;3.00;;;;;;;;5062620;28;8861;-89
2022/06/27 00:22:36;;;;;;;;;4.00;4.00;;;;;;;;5056641;28;8860;-89
2022/06/27 00:25:04;;;;;;;;;3.50;3.50;;;;;;;;5069118;28;8916;-89
2022/06/27 00:27:32;;;;;;;;;2.50;2.50;;;;;;;;5072971;28;8860;-90
2022/06/27 00:30:00;;;;;;;;;4.25;4.25;;;;;;;;5059966;28;8913;-89
2022/06/27 00:32:29;;;;;;;;;4.00;4.00;;;;;;;;5059089;28;8812;-88
2022/06/27 00:34:56;;;;;;;;;4.00;4.00;;;;;;;;5059488;28;10099;-88
2022/06/27 00:37:24;;;;;;;;;4.25;4.25;;;;;;;;5059306;28;8847;-87
2022/06/27 00:39:51;;;;;;;;;4.75;4.75;;;;;;;;5063503;28;8967;-87
2022/06/27 00:42:19;;;;;;;;;4.00;4.00;;;;;;;;5059078;28;8976;-91
2022/06/27 00:44:46;;;;;;;;;3.00;3.00;;;;;;;;5056383;28;8881;-88
2022/06/27 00:47:14;;;;;;;;;3.50;3.50;;;;;;;;5053934;28;9581;-92
2022/06/27 00:49:43;;;;;;;;;4.00;4.00;;;;;;;;5065533;28;8878;-90
2022/06/27 00:52:12;;;;;;;;;4.00;4.00;;;;;;;;5063773;28;8904;-89
2022/06/27 00:54:42;;;;;;;;;4.00;4.00;;;;;;;;5063743;28;8875;-89
2022/06/27 00:57:11;;;;;;;;;3.25;3.25;;;;;;;;5062992;28;8878;-88
2022/06/27 00:59:38;;;;;;;;;4.25;4.25;;;;;;;;5065427;28;8866;-91
2022/06/27 01:02:06;;;;;;;;;6.00;6.00;;;;;;;;5061123;28;8842;-90
2022/06/27 01:04:33;;;;;;;;;3.75;3.75;;;;;;;;5063667;28;8976;-91
2022/06/27 01:07:02;;;;;;;;;4.00;4.00;;;;;;;;5062980;28;8934;-91
2022/06/27 01:09:29;;;;;;;;;4.50;4.50;;;;;;;;5060925;28;8852;-90
2022/06/27 01:11:56;;;;;;;;;3.75;3.75;;;;;;;;5064211;28;8886;-89
2022/06/27 01:14:24;;;;;;;;;4.50;4.50;;;;;;;;5063471;28;8872;-90
2022/06/27 01:16:52;;;;;;;;;5.00;4.00;;;;;;;;5063807;28;9021;-87
2022/06/27 01:19:20;;;;;;;;;6.25;5.75;;;;;;;;5062202;28;8896;-87
2022/06/27 01:21:49;;;;;;;;;3.25;3.25;;;;;;;;5063732;28;8960;-89
2022/06/27 01:24:19;;;;;;;;;4.25;4.25;;;;;;;;5062292;28;9781;-87
2022/06/27 01:26:47;;;;;;;;;5.00;5.00;;;;;;;;5062238;28;9619;-88
2022/06/27 01:29:15;;;;;;;;;5.00;5.00;;;;;;;;5059395;28;8874;-88
2022/06/27 01:31:42;;;;;;;;;4.33;4.33;;;;;;;;5063348;28;8848;-88
2022/06/27 01:34:10;;;;;;;;;5.50;4.00;;;;;;;;5063705;28;10324;-91
2022/06/27 01:36:52;;;;;;;;;3.00;3.00;;;;;;;;5061233;28;8985;-89
2022/06/27 01:39:23;;;;;;;;;4.00;4.00;;;;;;;;5063739;28;8876;-88
2022/06/27 01:41:53;;;;;;;;;4.00;4.00;;;;;;;;5061933;28;8935;-89
2022/06/27 01:44:22;;;;;;;;;4.00;4.00;;;;;;;;5060517;28;8879;-88
2022/06/27 01:46:51;;;;;;;;;4.00;4.00;;;;;;;;5062093;28;9641;-94
2022/06/27 01:49:19;;;;;;;;;4.00;4.00;;;;;;;;5064517;28;8878;-94
2022/06/27 01:51:49;;;;;;;;;5.25;5.25;;;;;;;;5062626;28;8914;-94
2022/06/27 01:54:18;;;;;;;;;4.00;3.25;;;;;;;;5061372;28;8948;-91
2022/06/27 01:56:49;;;;;;;;;4.00;4.00;;;;;;;;5061244;28;8896;-94
2022/06/27 01:59:18;;;;;;;;;3.00;3.00;;;;;;;;5060188;28;8868;-90
2022/06/27 02:01:46;;;;;;;;;3.25;3.25;;;;;;;;5061684;28;8823;-89
2022/06/27 02:04:15;;;;;;;;;6.75;6.00;;;;;;;;5062787;28;8893;-94
2022/06/27 02:06:44;;;;;;;;;4.00;4.00;;;;;;;;5064520;28;8922;-90
2022/06/27 02:09:14;;;;;;;;;5.00;5.00;;;;;;;;5070953;28;8928;-90
2022/06/27 02:11:43;;;;;;;;;4.75;3.75;;;;;;;;5073867;28;8868;-88
2022/06/27 02:14:12;;;;;;;;;3.50;3.50;;;;;;;;5065818;28;8880;-90
2022/06/27 02:16:41;;;;;;;;;3.75;3.75;;;;;;;;5066602;28;8875;-90
2022/06/27 02:19:10;;;;;;;;;4.75;4.75;;;;;;;;5067067;28;8887;-90
2022/06/27 02:21:37;;;;;;;;;4.00;4.00;;;;;;;;5063715;28;8942;-88
2022/06/27 02:24:05;;;;;;;;;4.00;4.00;;;;;;;;5062175;28;8898;-91
2022/06/27 02:26:32;;;;;;;;;5.50;5.25;;;;;;;;5065593;28;9673;-91
2022/06/27 02:29:01;;;;;;;;;4.00;4.00;;;;;;;;5065746;28;8883;-92
2022/06/27 02:31:30;;;;;;;;;4.00;2.25;;;;;;;;5066468;28;8927;-91
2022/06/27 02:33:58;;;;;;;;;4.75;4.75;;;;;;;;5065994;28;8864;-91
2022/06/27 02:36:29;;;;;;;;;4.25;4.00;;;;;;;;5067468;28;8877;-90
2022/06/27 02:38:57;;;;;;;;;3.75;3.75;;;;;;;;5071021;28;8891;-90
2022/06/27 02:41:28;;;;;;;;;4.50;4.50;;;;;;;;5069174;28;8900;-89
2022/06/27 02:44:00;;;;;;;;;5.25;4.00;;;;;;;;5066106;28;9282;-89
2022/06/27 02:46:29;;;;;;;;;6.00;6.00;;;;;;;;5066059;28;8882;-88
2022/06/27 02:48:57;;;;;;;;;5.75;5.00;;;;;;;;5065469;28;8959;-88
2022/06/27 02:51:27;;;;;;;;;3.00;3.00;;;;;;;;5068175;28;8936;-89
2022/06/27 02:53:59;;;;;;;;;6.00;6.00;;;;;;;;5064841;28;8921;-89
2022/06/27 02:56:27;;;;;;;;;3.75;3.75;;;;;;;;5061639;28;8886;-91
2022/06/27 02:59:02;;;;;;;;;5.00;5.00;;;;;;;;5064508;28;8864;-88
2022/06/27 03:01:32;;;;;;;;;4.00;4.00;;;;;;;;5067030;28;8805;-90
2022/06/27 03:04:00;;;;;;;;;2.75;2.75;;;;;;;;5062169;28;8876;-88
2022/06/27 03:06:28;;;;;;;;;2.25;2.00;;;;;;;;5062512;28;8872;-87
2022/06/27 03:08:56;;;;;;;;;3.50;3.50;;;;;;;;5064562;28;8875;-87
2022/06/27 03:11:24;;;;;;;;;3.25;3.25;;;;;;;;5065768;28;8896;-87
2022/06/27 03:13:53;;;;;;;;;4.75;4.75;;;;;;;;5065134;28;9011;-87
2022/06/27 03:16:22;;;;;;;;;4.00;4.00;;;;;;;;5066218;28;8988;-91
2022/06/27 03:18:52;;;;;;;;;4.00;4.00;;;;;;;;5065655;28;8872;-91
2022/06/27 03:21:22;;;;;;;;;4.00;4.00;;;;;;;;5067447;28;8923;-92
2022/06/27 03:23:50;;;;;;;;;3.50;3.50;;;;;;;;5067908;28;8955;-90
2022/06/27 03:26:18;;;;;;;;;3.75;3.25;;;;;;;;5065704;28;8890;-93
2022/06/27 03:28:46;;;;;;;;;4.75;4.75;;;;;;;;5062821;28;8899;-92
2022/06/27 03:31:13;;;;;;;;;3.00;3.00;;;;;;;;5065022;28;8875;-91
2022/06/27 03:33:41;;;;;;;;;6.00;4.25;;;;;;;;5068297;28;8860;-91
2022/06/27 03:36:11;;;;;;;;;5.25;5.25;;;;;;;;5064729;28;9190;-92
2022/06/27 03:38:38;;;;;;;;;4.75;4.75;;;;;;;;5062336;28;9671;-91
2022/06/27 03:41:05;;;;;;;;;4.50;4.50;;;;;;;;5058645;28;8929;-92
2022/06/27 03:43:33;;;;;;;;;3.75;3.75;;;;;;;;5060033;28;8872;-93
2022/06/27 03:46:00;;;;;;;;;5.00;5.00;;;;;;;;5063464;28;9613;-92
2022/06/27 03:51:14;;;;;;;;;4.00;4.00;;;;;;;;5065913;28;8843;-90
2022/06/27 03:53:42;;;;;;;;;4.25;4.25;;;;;;;;5068500;28;8891;-91
2022/06/27 03:56:09;;;;;;;;;5.00;5.00;;;;;;;;5065242;28;8884;-90
2022/06/27 03:58:36;;;;;;;;;5.00;3.75;;;;;;;;5065568;28;8859;-90
2022/06/27 04:01:04;;;;;;;;;4.00;4.00;;;;;;;;5061364;28;8961;-91
2022/06/27 04:03:35;;;;;;;;;4.25;4.25;;;;;;;;5062387;28;8872;-88
2022/06/27 04:06:02;;;;;;;;;4.75;4.75;;;;;;;;5062920;28;8893;-88
2022/06/27 04:09:18;;;;;;;;;3.50;2.25;;;;;;;;5064900;28;8883;-85
2022/06/27 04:14:53;;;;;;;;;7.75;5.00;;;;;;;;4978306;28;8859;-87
2022/06/27 04:17:20;;;;;;;;;4.00;4.00;;;;;;;;5059296;28;8866;-91
2022/06/27 04:19:48;;;;;;;;;5.00;5.00;;;;;;;;5067177;28;8860;-89
2022/06/27 04:22:15;;;;;;;;;4.25;4.25;;;;;;;;5067590;28;8970;-86
2022/06/27 04:24:43;;;;;;;;;5.25;4.75;;;;;;;;5062624;28;8945;-86
2022/06/27 04:27:11;;;;;;;;;4.00;4.00;;;;;;;;5060799;28;8862;-86
2022/06/27 04:29:39;;;;;;;;;5.00;5.00;;;;;;;;5067474;28;8863;-87
2022/06/27 04:32:07;;;;;;;;;4.50;4.50;;;;;;;;5059509;28;8934;-75
2022/06/27 04:34:44;;;;;;;;;6.00;4.50;;;;;;;;5065075;28;9689;-83
2022/06/27 04:37:11;;;;;;;;;3.50;3.50;;;;;;;;5062145;28;8889;-79
2022/06/27 04:39:39;;;;;;;;;3.00;3.00;;;;;;;;5062113;28;8888;-80
2022/06/27 04:42:07;;;;;;;;;6.00;4.75;;;;;;;;5064903;28;8902;-78
2022/06/27 04:44:37;;;;;;;;;6.00;6.00;;;;;;;;5059693;28;8876;-79
2022/06/27 04:47:07;;;;;;;;;2.75;2.75;;;;;;;;5062334;28;8882;-79
2022/06/27 04:49:34;;;;;;;;;5.00;4.00;;;;;;;;5061464;28;8937;-79
2022/06/27 04:52:01;;;;;;;;;6.75;5.00;;;;;;;;5066573;28;8910;-83
2022/06/27 04:54:29;;;;;;;;;4.00;4.00;;;;;;;;5059651;28;8973;-79
2022/06/27 04:56:56;;;;;;;;;8.00;5.00;;;;;;;;5061058;28;8871;-77
2022/06/27 04:59:23;;;;;;;;;3.75;3.75;;;;;;;;5061689;28;8834;-75
2022/06/27 05:01:53;;;;;;;;;5.50;5.50;;;;;;;;5059939;28;8941;-77
2022/06/27 05:04:21;;;;;;;;;3.25;3.25;;;;;;;;5062372;28;8991;-77
2022/06/27 05:06:49;;;;;;;;;3.75;3.75;;;;;;;;5059817;28;8861;-82
2022/06/27 05:09:17;;;;;;;;;4.00;4.00;;;;;;;;5063458;28;8987;-78
2022/06/27 05:11:47;;;;;;;;;4.25;4.00;;;;;;;;5058786;28;8907;-81
2022/06/27 05:14:14;;;;;;;;;4.75;4.75;;;;;;;;5058498;28;8871;-82
2022/06/27 05:16:41;;;;;;;;;6.00;4.75;;;;;;;;5061010;28;8875;-76
2022/06/27 05:19:10;;;;;;;;;5.00;5.00;;;;;;;;5057102;28;8861;-77
2022/06/27 05:21:39;;;;;;;;;5.00;5.00;;;;;;;;5055671;28;8861;-77
2022/06/27 05:24:07;;;;;;;;;5.00;5.00;;;;;;;;5049464;28;8866;-76
2022/06/27 05:26:35;;;;;;;;;4.50;4.50;;;;;;;;5043648;28;8842;-76
2022/06/27 05:29:03;;;;;;;;;3.00;3.00;;;;;;;;5039392;28;8887;-75
2022/06/27 05:31:30;;;;;;;;;4.50;4.50;;;;;;;;5041909;28;8865;-77
2022/06/27 05:33:58;;;;;;;;;4.25;4.25;;;;;;;;5047935;28;8865;-76
2022/06/27 05:36:27;;;;;;;;;6.25;3.00;;;;;;;;5057791;28;8880;-77
2022/06/27 05:38:55;;;;;;;;;2.75;2.75;;;;;;;;5058619;28;8852;-77
2022/06/27 05:41:22;;;;;;;;;4.00;4.00;;;;;;;;5053327;28;8891;-77
2022/06/27 05:43:50;;;;;;;;;3.25;3.25;;;;;;;;5064094;28;8904;-79
2022/06/27 05:46:19;;;;;;;;;5.25;5.25;;;;;;;;5062883;28;8933;-79
2022/06/27 05:48:46;;;;;;;;;5.50;4.00;;;;;;;;5072345;28;8868;-78
2022/06/27 05:51:14;;;;;;;;;4.00;4.00;;;;;;;;5071282;28;8864;-77
2022/06/27 05:53:43;;;;;;;;;4.75;4.75;;;;;;;;5065847;28;8872;-77
2022/06/27 05:56:10;;;;;;;;;4.00;4.00;;;;;;;;5097652;27;8859;-76
2022/06/27 05:58:38;;;;;;;;;4.00;4.00;;;;;;;;5061943;28;8937;-73
2022/06/27 06:01:06;;;;;;;;;3.00;3.00;;;;;;;;5059210;28;8869;-74
2022/06/27 06:03:34;;;;;;;;;4.00;4.00;;;;;;;;5065836;28;8874;-73
2022/06/27 06:06:02;;;;;;;;;4.00;4.00;;;;;;;;5063173;28;8877;-74
2022/06/27 06:08:29;;;;;;;;;4.00;4.00;;;;;;;;5068844;28;8862;-73
2022/06/27 06:10:59;;;;;;;;;6.50;4.75;;;;;;;;5063258;28;8886;-74
2022/06/27 06:13:28;;;;;;;;;5.00;3.50;;;;;;;;5063973;28;9003;-73
2022/06/27 06:15:57;;;;;;;;;4.75;4.75;;;;;;;;5059426;28;9693;-74
2022/06/27 06:18:24;;;;;;;;;4.00;4.00;;;;;;;;5060477;28;8912;-74
2022/06/27 06:20:51;;;;;;;;;7.00;4.50;;;;;;;;5062747;28;8896;-73
2022/06/27 06:23:19;;;;;;;;;6.75;5.25;;;;;;;;5061332;28;8863;-73
2022/06/27 06:25:46;;;;;;;;;4.75;4.25;;;;;;;;5061725;28;8897;-73
2022/06/27 06:28:15;;;;;;;;;3.25;3.25;;;;;;;;5063192;28;8892;-73
2022/06/27 06:30:42;;;;;;;;;4.00;4.00;;;;;;;;5060746;28;8918;-74
2022/06/27 06:33:09;;;;;;;;;6.50;4.75;;;;;;;;5062727;28;9588;-73
2022/06/27 06:35:37;;;;;;;;;3.50;3.50;;;;;;;;5063899;28;8959;-73
2022/06/27 06:38:05;;;;;;;;;4.75;3.25;;;;;;;;5062657;28;8854;-72
2022/06/27 06:40:32;;;;;;;;;3.50;3.50;;;;;;;;5063745;28;8876;-75
2022/06/27 06:43:01;;;;;;;;;5.25;4.00;;;;;;;;5062245;28;8887;-73
2022/06/27 06:45:30;;;;;;;;;3.00;3.00;;;;;;;;5064520;28;9562;-74
2022/06/27 06:47:58;;;;;;;;;4.00;4.00;;;;;;;;5062993;28;9664;-75
2022/06/27 06:50:25;;;;;;;;;6.00;6.00;;;;;;;;5063215;28;8858;-74
2022/06/27 06:52:53;;;;;;;;;4.00;4.00;;;;;;;;5064846;28;9024;-75
2022/06/27 06:55:23;;;;;;;;;4.50;4.50;;;;;;;;5062409;28;8879;-75
2022/06/27 06:57:50;;;;;;;;;3.00;3.00;;;;;;;;5062066;28;8858;-73
2022/06/27 07:00:19;;;;;;;;;4.75;4.75;;;;;;;;5057497;28;8868;-74
2022/06/27 07:02:48;;;;;;;;;3.80;3.80;;;;;;;;5061764;28;8850;-75
2022/06/27 07:05:16;;;;;;;;;5.00;5.00;;;;;;;;5061510;28;8977;-75
2022/06/27 07:07:44;;;;;;;;;2.60;2.60;;;;;;;;5063429;28;8855;-75
2022/06/27 07:10:13;;;;;;;;;4.00;4.00;;;;;;;;5058521;28;9619;-76
2022/06/27 07:12:41;;;;;;;;;4.00;4.00;;;;;;;;5061037;28;8852;-75
2022/06/27 07:15:11;;;;;;;;;3.80;3.40;;;;;;;;5059815;28;8880;-76
2022/06/27 07:17:44;;;;;;;;;2.20;2.20;;;;;;;;5056407;28;8861;-76
2022/06/27 07:20:19;;;;;;;;;4.50;4.50;;;;;;;;5055069;28;8884;-77
2022/06/27 07:22:47;;;;;;;;;6.00;4.00;;;;;;;;5056537;28;8888;-76
2022/06/27 07:25:14;;;;;;;;;5.50;5.50;;;;;;;;5056271;28;8876;-77
2022/06/27 07:27:42;;;;;;;;;2.60;2.60;;;;;;;;5064635;28;8842;-77
2022/06/27 07:30:12;;;;;;;;;3.80;3.80;;;;;;;;5056697;28;8848;-78
2022/06/27 07:32:40;;;;;;;;;4.75;4.75;;;;;;;;5062660;28;8955;-75
2022/06/27 07:35:09;;;;;;;;;3.00;3.00;;;;;;;;5060987;28;8903;-77
2022/06/27 07:37:40;;;;;;;;;5.00;3.60;;;;;;;;5061930;28;8892;-77
2022/06/27 07:40:08;;;;;;;;;3.00;3.00;;;;;;;;5058979;28;8908;-76
2022/06/27 07:42:37;;;;;;;;;4.00;4.00;;;;;;;;5062770;28;8871;-76
2022/06/27 07:45:07;;;;;;;;;2.80;2.80;;;;;;;;5066435;28;8864;-75
2022/06/27 07:47:35;;;;;;;;;3.00;3.00;;;;;;;;5066959;28;9001;-75
2022/06/27 07:50:02;;;;;;;;;5.75;3.00;;;;;;;;5061070;28;8858;-75
2022/06/27 07:53:11;;;;;;;;;5.80;4.00;;;;;;;;5062783;28;8979;-78
2022/06/27 07:55:19;;;;;;;;;3.00;3.00;;;;;;;;5062739;28;8904;-77
2022/06/27 07:57:48;;;;;;;;;2.75;2.50;;;;;;;;5060177;28;9526;-77
2022/06/27 08:00:16;;;;;;;;;3.00;3.00;;;;;;;;5065183;28;9663;-77
2022/06/27 08:02:43;;;;;;;;;4.00;4.00;;;;;;;;5063100;28;8850;-76
2022/06/27 08:05:10;;;;;;;;;3.00;3.00;;;;;;;;5060615;28;8877;-77
2022/06/27 08:07:38;;;;;;;;;3.20;3.20;;;;;;;;5062600;28;8859;-77
2022/06/27 08:10:07;;;;;;;;;2.00;2.00;;;;;;;;5057616;28;8863;-77
2022/06/27 08:12:36;;;;;;;;;3.00;3.00;;;;;;;;5060275;28;9472;-77
2022/06/27 08:15:03;;;;;;;;;4.25;3.25;;;;;;;;5058057;28;9679;-77
2022/06/27 08:17:31;;;;;;;;;3.20;3.00;;;;;;;;5060728;28;8878;-80
2022/06/27 08:19:59;;;;;;;;;2.60;2.60;;;;;;;;5058554;28;8823;-81
2022/06/27 08:22:30;;;;;;;;;3.00;3.00;;;;;;;;5061637;28;8868;-76
2022/06/27 08:24:58;;;;;;;;;2.40;2.00;;;;;;;;5052764;28;8845;-77
2022/06/27 08:27:26;;;;;;;;;3.00;3.00;;;;;;;;5053809;28;9023;-76
2022/06/27 08:29:55;;;;;;;;;3.00;3.00;;;;;;;;5060577;28;8854;-77
2022/06/27 08:32:23;;;;;;;;;2.80;2.80;;;;;;;;5058034;28;8820;-77
2022/06/27 08:34:51;;;;;;;;;3.60;3.60;;;;;;;;5062480;28;8855;-77
2022/06/27 08:37:18;;;;;;;;;4.00;4.00;;;;;;;;5059970;28;8929;-77
2022/06/27 08:39:46;;;;;;;;;4.40;4.40;;;;;;;;5058409;28;8894;-77
2022/06/27 08:42:13;;;;;;;;;5.60;4.00;;;;;;;;5061317;28;8890;-77
2022/06/27 08:44:41;;;;;;;;;5.00;2.00;;;;;;;;5056735;28;8886;-78
2022/06/27 08:47:11;;;;;;;;;4.20;3.00;;;;;;;;5060947;28;8861;-74
2022/06/27 08:49:39;;;;;;;;;0.00;0.00;;;;;;;;5056886;28;8868;-77
2022/06/27 08:52:07;;;;;;;;;2.00;2.00;;;;;;;;5061497;28;8864;-77
2022/06/27 08:54:34;;;;;;;;;1.20;1.20;;;;;;;;5062208;28;8871;-78
2022/06/27 08:57:02;;;;;;;;;2.00;2.00;;;;;;;;5059893;28;8882;-83
2022/06/27 08:59:30;;;;;;;;;1.00;1.00;;;;;;;;5058814;28;9500;-77
2022/06/27 09:01:58;;;;;;;;;3.00;1.00;;;;;;;;5057631;28;8803;-75
2022/06/27 09:04:26;;;;;;;;;0.00;0.00;;;;;;;;5059987;28;8987;-75
2022/06/27 09:06:56;;;;;;;;;1.00;1.00;;;;;;;;5060448;28;8882;-76
2022/06/27 09:09:27;;;;;;;;;3.00;1.00;;;;;;;;5058539;28;8874;-75
2022/06/27 09:11:55;;;;;;;;;1.00;1.00;;;;;;;;5061709;28;8920;-77
2022/06/27 09:14:35;;;;;;;;;0.00;0.00;;;;;;;;5062740;28;8866;-77
2022/06/27 09:17:04;;;;;;;;;0.00;0.00;;;;;;;;5058269;28;8851;-77
2022/06/27 09:19:59;;;;;;;;;0.00;0.00;;;;;;;;5057849;28;8905;-77
2022/06/27 09:22:29;;;;;;;;;0.00;0.00;;;;;;;;5062670;28;8952;-78
2022/06/27 09:25:01;;;;;;;;;0.00;0.00;;;;;;;;5057931;28;8891;-78
2022/06/27 09:27:40;;;;;;;;;0.00;0.00;;;;;;;;5061060;28;8910;-78
2022/06/27 09:30:27;;;;;;;;;0.00;0.00;;;;;;;;5060490;28;8948;-75
2022/06/27 09:32:58;;;;;;;;;0.00;0.00;;;;;;;;5060910;28;8980;-76
2022/06/27 09:35:31;;;;;;;;;0.00;0.00;;;;;;;;5056987;28;8876;-77
2022/06/27 09:38:01;;;;;;;;;1.00;1.00;;;;;;;;5059354;28;8848;-74
2022/06/27 09:40:32;;;;;;;;;1.00;1.00;;;;;;;;5061618;28;8864;-76
2022/06/27 09:43:00;;;;;;;;;0.40;0.40;;;;;;;;5062030;28;8941;-75
2022/06/27 09:45:29;;;;;;;;;0.00;0.00;;;;;;;;5060064;28;8890;-75
2022/06/27 09:47:59;;;;;;;;;0.40;0.40;;;;;;;;5061212;28;8863;-75
2022/06/27 09:50:32;;;;;;;;;2.80;2.40;;;;;;;;5061191;28;8977;-74
2022/06/27 09:53:01;;;;;;;;;0.00;0.00;;;;;;;;5059128;28;10168;-77
2022/06/27 09:55:28;;;;;;;;;0.00;0.00;;;;;;;;5056304;28;9644;-77
2022/06/27 09:57:56;;;;;;;;;1.00;1.00;;;;;;;;5056532;28;8849;-76
2022/06/27 10:00:25;;;;;;;;;0.00;0.00;;;;;;;;5065323;28;8816;-75
2022/06/27 10:02:53;;;;;;;;;0.00;0.00;;;;;;;;5063560;28;9617;-76
2022/06/27 10:05:21;;;;;;;;;0.00;0.00;;;;;;;;5060209;28;8870;-75
2022/06/27 10:07:56;;;;;;;;;0.00;0.00;;;;;;;;5061467;28;8887;-75
2022/06/27 10:10:23;;;;;;;;;0.80;0.80;;;;;;;;5058570;28;8889;-75
2022/06/27 10:12:58;;;;;;;;;0.00;0.00;;;;;;;;5056336;28;8896;-76
2022/06/27 10:15:27;;;;;;;;;0.00;0.00;;;;;;;;5056726;28;9682;-77
2022/06/27 10:17:57;;;;;;;;;0.00;0.00;;;;;;;;5061473;28;8864;-76
2022/06/27 10:20:36;;;;;;;;;2.00;0.00;;;;;;;;5056945;28;8850;-75
2022/06/27 10:23:28;;;;;;;;;0.00;0.00;;;;;;;;5058694;28;8858;-77
2022/06/27 10:25:56;;;;;;;;;0.20;0.20;;;;;;;;5055474;28;8897;-77
2022/06/27 10:28:24;;;;;;;;;0.00;0.00;;;;;;;;5067142;28;8990;-77
2022/06/27 10:30:53;;;;;;;;;1.80;0.00;;;;;;;;5060619;28;8907;-78
2022/06/27 10:33:40;;;;;;;;;0.00;0.00;;;;;;;;5065652;28;8876;-75
2022/06/27 10:36:13;;;;;;;;;0.20;0.20;;;;;;;;5068044;28;8868;-77
2022/06/27 10:39:03;;;;;;;;;0.00;0.00;;;;;;;;5060173;28;8887;-77
2022/06/27 10:41:42;;;;;;;;;0.00;0.00;;;;;;;;5058162;28;8848;-75
2022/06/27 10:44:30;;;;;;;;;0.00;0.00;;;;;;;;5063506;28;10246;-75
2022/06/27 10:46:57;;;;;;;;;0.40;0.40;;;;;;;;5061527;28;8881;-75
2022/06/27 10:49:26;;;;;;;;;1.00;1.00;;;;;;;;5064377;28;9790;-76
2022/06/27 10:51:54;;;;;;;;;0.00;0.00;;;;;;;;5063578;28;8862;-76
2022/06/27 10:54:23;;;;;;;;;0.40;0.40;;;;;;;;5063505;28;8871;-76
2022/06/27 10:56:51;;;;;;;;;0.00;0.00;;;;;;;;5067250;28;8889;-75
2022/06/27 10:59:57;;;;;;;;;0.00;0.00;;;;;;;;5063378;28;8880;-76
2022/06/27 11:02:28;;;;;;;;;0.40;0.40;;;;;;;;5058990;28;8865;-75
2022/06/27 11:04:56;;;;;;;;;1.00;1.00;;;;;;;;5062643;28;9247;-73
2022/06/27 11:07:24;;;;;;;;;0.00;0.00;;;;;;;;5061580;28;8865;-74
2022/06/27 11:09:53;;;;;;;;;1.00;1.00;;;;;;;;5059182;28;8858;-75
2022/06/27 11:12:28;;;;;;;;;0.00;0.00;;;;;;;;5061702;28;8891;-74
2022/06/27 11:14:57;;;;;;;;;0.00;0.00;;;;;;;;5064682;28;8932;-74
2022/06/27 11:17:43;;;;;;;;;0.60;0.60;;;;;;;;5061011;28;8871;-74
2022/06/27 11:20:14;;;;;;;;;0.00;0.00;;;;;;;;5058057;28;8854;-76
2022/06/27 11:22:41;;;;;;;;;0.00;0.00;;;;;;;;5062292;28;8878;-75
2022/06/27 11:25:12;;;;;;;;;0.20;0.20;;;;;;;;5060289;28;8975;-76
2022/06/27 11:27:54;;;;;;;;;0.00;0.00;;;;;;;;5061763;28;8911;-75
2022/06/27 11:33:22;;;;;;;;;0.00;0.00;;;;;;;;5060397;28;9620;-73
2022/06/27 11:35:49;;;;;;;;;0.20;0.20;;;;;;;;5057691;28;8883;-72
2022/06/27 11:38:31;;;;;;;;;1.00;0.00;;;;;;;;5060508;28;9693;-75
2022/06/27 11:41:08;;;;;;;;;0.00;0.00;;;;;;;;5060034;28;9653;-75
2022/06/27 11:43:51;;;;;;;;;1.00;1.00;;;;;;;;5057992;28;8850;-74
2022/06/27 11:46:26;;;;;;;;;0.00;0.00;;;;;;;;5059076;28;8983;-72
2022/06/27 11:48:59;;;;;;;;;0.00;0.00;;;;;;;;5060390;28;8900;-74
2022/06/27 11:51:30;;;;;;;;;0.00;0.00;;;;;;;;5063738;28;9878;-74
2022/06/27 11:54:03;;;;;;;;;2.40;1.00;;;;;;;;5062635;28;8870;-74
2022/06/27 11:56:33;;;;;;;;;0.80;0.80;;;;;;;;5059505;28;8870;-73
2022/06/27 11:59:01;;;;;;;;;0.80;0.80;;;;;;;;5063739;28;8852;-72
2022/06/27 12:01:28;;;;;;;;;0.75;0.75;;;;;;;;5061423;28;8812;-73
2022/06/27 12:04:14;;;;;;;;;0.00;0.00;;;;;;;;5067056;28;8867;-72
2022/06/27 12:06:46;;;;;;;;;0.20;0.20;;;;;;;;5062137;28;8851;-72
2022/06/27 12:09:14;;;;;;;;;1.00;1.00;;;;;;;;5059786;28;8909;-72
2022/06/27 12:12:01;;;;;;;;;0.60;0.60;;;;;;;;5064405;28;8863;-73
2022/06/27 12:14:29;;;;;;;;;0.80;0.80;;;;;;;;5057432;28;8906;-74
2022/06/27 12:16:58;;;;;;;;;0.40;0.40;;;;;;;;5063364;28;8882;-73
2022/06/27 12:19:27;;;;;;;;;0.00;0.00;;;;;;;;5060449;28;8881;-72
2022/06/27 12:21:54;;;;;;;;;0.60;0.60;;;;;;;;5059411;28;8886;-72
2022/06/27 12:24:21;;;;;;;;;0.80;0.80;;;;;;;;5060726;28;8867;-72
2022/06/27 12:26:49;;;;;;;;;0.00;0.00;;;;;;;;5059014;28;8882;-73
2022/06/27 12:29:18;;;;;;;;;1.80;1.00;;;;;;;;5064796;28;9263;-74
2022/06/27 12:31:45;;;;;;;;;1.00;1.00;;;;;;;;5059384;28;8822;-74
2022/06/27 12:34:14;;;;;;;;;0.60;0.60;;;;;;;;5062439;28;8873;-72
2022/06/27 12:36:42;;;;;;;;;1.00;1.00;;;;;;;;5053205;28;8977;-73
2022/06/27 12:39:10;;;;;;;;;0.80;0.80;;;;;;;;5062656;28;8969;-73
2022/06/27 12:41:38;;;;;;;;;1.00;1.00;;;;;;;;5061071;28;8913;-72
2022/06/27 12:44:06;;;;;;;;;0.00;0.00;;;;;;;;5061868;28;8862;-74
2022/06/27 12:46:35;;;;;;;;;0.40;0.40;;;;;;;;5061696;28;8870;-73
2022/06/27 12:49:02;;;;;;;;;0.20;0.20;;;;;;;;5060372;28;8871;-72
2022/06/27 12:51:29;;;;;;;;;0.60;0.60;;;;;;;;5063654;28;8999;-73
2022/06/27 12:53:57;;;;;;;;;0.00;0.00;;;;;;;;5060753;28;8888;-73
2022/06/27 12:56:26;;;;;;;;;0.20;0.20;;;;;;;;5062663;28;8893;-72
2022/06/27 12:58:53;;;;;;;;;0.60;0.60;;;;;;;;5060832;28;8907;-71
2022/06/27 13:01:21;;;;;;;;;2.80;0.00;;;;;;;;5055896;28;8815;-70
2022/06/27 13:03:50;;;;;;;;;0.00;0.00;;;;;;;;5060649;28;8879;-70
2022/06/27 13:06:17;;;;;;;;;1.80;0.00;;;;;;;;5060908;28;8857;-71
2022/06/27 13:08:45;;;;;;;;;0.40;0.40;;;;;;;;5062722;28;8859;-71
2022/06/27 13:11:12;;;;;;;;;0.60;0.60;;;;;;;;5061654;28;8905;-74
2022/06/27 13:13:39;;;;;;;;;0.80;0.80;;;;;;;;5060368;28;8897;-78
2022/06/27 13:16:07;;;;;;;;;2.00;1.60;;;;;;;;5059911;28;8919;-75
2022/06/27 13:18:35;;;;;;;;;1.60;1.40;;;;;;;;5059685;28;8882;-74
2022/06/27 13:21:04;;;;;;;;;2.20;1.00;;;;;;;;5060368;28;8884;-73
2022/06/27 13:23:31;;;;;;;;;1.20;1.20;;;;;;;;5062452;28;8991;-74
2022/06/27 13:25:59;;;;;;;;;3.00;3.00;;;;;;;;5063145;28;8973;-75
2022/06/27 13:28:26;;;;;;;;;3.20;3.20;;;;;;;;5059833;28;8873;-75
2022/06/27 13:30:53;;;;;;;;;3.00;3.00;;;;;;;;5061556;28;8963;-74
2022/06/27 13:33:20;;;;;;;;;3.00;3.00;;;;;;;;5059120;28;8850;-74
2022/06/27 13:35:48;;;;;;;;;2.80;2.80;;;;;;;;5059418;28;8893;-74
2022/06/27 13:38:17;;;;;;;;;3.20;3.20;;;;;;;;5058573;28;8849;-74
2022/06/27 13:40:44;;;;;;;;;2.00;2.00;;;;;;;;5058824;28;9016;-75
2022/06/27 13:43:12;;;;;;;;;1.20;1.20;;;;;;;;5059403;28;9616;-74
2022/06/27 13:45:40;;;;;;;;;1.80;1.80;;;;;;;;5057105;28;8858;-75
2022/06/27 13:48:08;;;;;;;;;2.80;2.80;;;;;;;;5058399;28;8896;-74
2022/06/27 13:50:36;;;;;;;;;2.00;2.00;;;;;;;;5059444;28;8866;-75
2022/06/27 13:53:05;;;;;;;;;1.60;1.60;;;;;;;;5060889;28;8991;-74
2022/06/27 13:55:37;;;;;;;;;2.40;2.40;;;;;;;;5059790;28;8894;-75
2022/06/27 13:58:05;;;;;;;;;1.00;1.00;;;;;;;;5058381;28;8977;-75
2022/06/27 14:00:32;;;;;;;;;3.80;2.40;;;;;;;;5057718;28;8823;-74
2022/06/27 14:03:00;;;;;;;;;1.40;1.00;;;;;;;;5059326;28;8876;-75
2022/06/27 14:05:27;;;;;;;;;1.00;1.00;;;;;;;;5063455;28;8988;-75
2022/06/27 14:07:54;;;;;;;;;2.60;2.60;;;;;;;;5063542;28;8906;-74
2022/06/27 14:10:22;;;;;;;;;0.80;0.80;;;;;;;;5062470;28;8858;-75
2022/06/27 14:12:51;;;;;;;;;1.00;1.00;;;;;;;;5063792;28;8894;-74
2022/06/27 14:15:20;;;;;;;;;2.20;2.20;;;;;;;;5063855;28;8870;-75
2022/06/27 14:17:48;;;;;;;;;1.60;1.60;;;;;;;;5065021;28;8892;-74
2022/06/27 14:20:16;;;;;;;;;1.80;1.80;;;;;;;;5094899;28;8851;-75
2022/06/27 14:22:44;;;;;;;;;2.60;2.60;;;;;;;;5063279;28;8881;-76
2022/06/27 14:25:11;;;;;;;;;2.80;2.80;;;;;;;;5063082;28;8882;-77
2022/06/27 14:27:39;;;;;;;;;1.20;1.20;;;;;;;;5067144;28;8862;-75
2022/06/27 14:30:08;;;;;;;;;1.60;1.60;;;;;;;;5062108;28;8896;-77
2022/06/27 14:32:36;;;;;;;;;2.00;2.00;;;;;;;;5062344;28;8858;-72
2022/06/27 14:35:04;;;;;;;;;2.20;2.20;;;;;;;;5062986;28;8839;-75
2022/06/27 14:37:31;;;;;;;;;2.00;2.00;;;;;;;;5061326;28;8863;-77
2022/06/27 14:39:58;;;;;;;;;2.00;2.00;;;;;;;;5064216;28;8873;-76
2022/06/27 14:42:26;;;;;;;;;2.60;2.60;;;;;;;;5062781;28;8936;-76
2022/06/27 14:44:54;;;;;;;;;3.20;0.60;;;;;;;;5061623;28;8955;-75
2022/06/27 14:47:23;;;;;;;;;2.00;2.00;;;;;;;;5060918;28;8893;-75
2022/06/27 14:49:51;;;;;;;;;3.00;2.80;;;;;;;;5062382;28;8985;-76
2022/06/27 14:52:19;;;;;;;;;1.20;1.20;;;;;;;;5061257;28;8875;-80
2022/06/27 14:54:46;;;;;;;;;2.00;2.00;;;;;;;;5064670;28;8868;-75
2022/06/27 14:57:14;;;;;;;;;1.80;1.80;;;;;;;;5064949;28;8921;-74
2022/06/27 14:59:42;;;;;;;;;1.00;1.00;;;;;;;;5059046;28;8872;-75
2022/06/27 15:02:10;;;;;;;;;2.20;0.80;;;;;;;;5060927;28;8949;-74
2022/06/27 15:04:38;;;;;;;;;1.20;1.20;;;;;;;;5059886;28;8880;-77
2022/06/27 15:07:06;;;;;;;;;2.20;2.00;;;;;;;;5065392;28;9989;-77
2022/06/27 15:09:33;;;;;;;;;2.40;1.60;;;;;;;;5061123;28;8867;-76
2022/06/27 15:12:01;;;;;;;;;2.00;2.00;;;;;;;;5065173;28;8900;-76
2022/06/27 15:14:29;;;;;;;;;0.80;0.80;;;;;;;;5061991;28;9634;-75
2022/06/27 15:16:56;;;;;;;;;2.00;2.00;;;;;;;;5062958;28;8870;-75